Time,TemperatureF,DewpointF,PressureIn,WindDirection,WindDirectionDegrees,WindSpeedMPH,WindSpeedGustMPH,Humidity,HourlyPrecipIn,Conditions,Clouds,dailyrainin,SoftwareType,DateUTC
2013-01-01 00:03:00,38.0,-99.9,29.89,WSW,240,6.0,13.0,-999,-99.99,,,-99.99,,2013-01-01 05:03:00,
2013-01-01 00:12:00,38.0,-99.9,29.89,WSW,246,8.0,17.0,-999,-99.99,,,-99.99,,2013-01-01 05:12:00,
2013-01-01 00:22:00,39.0,-99.9,29.89,WSW,252,11.0,17.0,-999,-99.99,,,-99.99,,2013-01-01 05:22:00,
2013-01-01 00:33:00,39.0,-99.9,29.88,WSW,251,8.0,15.0,-999,-99.99,,,-99.99,,2013-01-01 05:33:00,
2013-01-01 00:42:00,38.0,-99.9,29.88,WSW,251,9.0,15.0,-999,-99.99,,,-99.99,,2013-01-01 05:42:00,
2013-01-01 00:53:00,38.0,-99.9,29.87,WSW,250,8.0,13.0,-999,-99.99,,,-99.99,,2013-01-01 05:53:00,
2013-01-01 01:02:00,38.0,-99.9,29.87,WSW,257,6.0,11.0,-999,-99.99,,,-99.99,,2013-01-01 06:02:00,
2013-01-01 01:12:00,38.0,-99.9,29.87,West,262,7.0,11.0,-999,-99.99,,,-99.99,,2013-01-01 06:12:00,
2013-01-01 01:22:00,38.0,-99.9,29.87,WSW,257,5.0,8.0,-999,-99.99,,,-99.99,,2013-01-01 06:22:00,
2013-01-01 01:33:00,38.0,-99.9,29.87,West,266,8.0,11.0,-999,-99.99,,,-99.99,,2013-01-01 06:33:00,
2013-01-01 01:43:00,38.0,-99.9,29.88,West,260,6.0,10.0,-999,-99.99,,,-99.99,,2013-01-01 06:43:00,
2013-01-01 01:52:00,38.0,-99.9,29.88,West,266,6.0,11.0,-999,-99.99,,,-99.99,,2013-01-01 06:52:00,
2013-01-01 02:02:00,38.0,-99.9,29.88,West,269,6.0,8.0,-999,-99.99,,,-99.99,,2013-01-01 07:02:00,
2013-01-01 02:12:00,38.0,-99.9,29.88,WSW,239,3.0,4.0,-999,-99.99,,,-99.99,,2013-01-01 07:12:00,
2013-01-01 02:22:00,39.0,-99.9,29.87,WSW,256,6.0,11.0,-999,-99.99,,,-99.99,,2013-01-01 07:22:00,
2013-01-01 02:32:00,39.0,-99.9,29.88,West,259,5.0,11.0,-999,-99.99,,,-99.99,,2013-01-01 07:32:00,
2013-01-01 02:43:00,39.0,-99.9,29.88,West,266,6.0,10.0,-999,-99.99,,,-99.99,,2013-01-01 07:43:00,
2013-01-01 02:53:00,39.0,-99.9,29.87,West,264,4.0,7.0,-999,-99.99,,,-99.99,,2013-01-01 07:53:00,
2013-01-01 03:02:00,39.0,-99.9,29.88,WSW,255,6.0,8.0,-999,-99.99,,,-99.99,,2013-01-01 08:02:00,
2013-01-01 03:12:00,39.0,-99.9,29.88,WSW,251,4.0,10.0,-999,-99.99,,,-99.99,,2013-01-01 08:12:00,
2013-01-01 03:22:00,39.0,-99.9,29.88,WSW,247,6.0,11.0,-999,-99.99,,,-99.99,,2013-01-01 08:22:00,
2013-01-01 03:32:00,39.0,-99.9,29.89,WSW,243,4.0,9.0,-999,-99.99,,,-99.99,,2013-01-01 08:32:00,
2013-01-01 03:42:00,40.0,-99.9,29.89,WSW,253,7.0,11.0,-999,-99.99,,,-99.99,,2013-01-01 08:42:00,
2013-01-01 03:53:00,40.0,-99.9,29.88,WSW,255,7.0,12.0,-999,-99.99,,,-99.99,,2013-01-01 08:53:00,
2013-01-01 04:02:00,40.0,-99.9,29.88,WSW,250,6.0,9.0,-999,-99.99,,,-99.99,,2013-01-01 09:02:00,
2013-01-01 04:12:00,40.0,-99.9,29.89,WSW,245,6.0,10.0,-999,-99.99,,,-99.99,,2013-01-01 09:12:00,
2013-01-01 04:22:00,40.0,-99.9,29.88,WSW,242,9.0,13.0,-999,-99.99,,,-99.99,,2013-01-01 09:22:00,
2013-01-01 04:32:00,40.0,-99.9,29.88,WSW,254,9.0,14.0,-999,-99.99,,,-99.99,,2013-01-01 09:32:00,
2013-01-01 04:43:00,40.0,-99.9,29.88,WSW,253,6.0,11.0,-999,-99.99,,,-99.99,,2013-01-01 09:43:00,
2013-01-01 04:53:00,40.0,-99.9,29.89,WSW,255,10.0,14.0,-999,-99.99,,,-99.99,,2013-01-01 09:53:00,
2013-01-01 05:02:00,40.0,-99.9,29.89,West,260,6.0,10.0,-999,-99.99,,,-99.99,,2013-01-01 10:02:00,
2013-01-01 05:12:00,40.0,-99.9,29.88,West,260,9.0,13.0,-999,-99.99,,,-99.99,,2013-01-01 10:12:00,
2013-01-01 05:22:00,40.0,-99.9,29.88,West,263,10.0,17.0,-999,-99.99,,,-99.99,,2013-01-01 10:22:00,
2013-01-01 05:33:00,40.0,-99.9,29.88,WSW,252,10.0,15.0,-999,-99.99,,,-99.99,,2013-01-01 10:33:00,
2013-01-01 05:43:00,40.0,-99.9,29.87,WSW,242,5.0,12.0,-999,-99.99,,,-99.99,,2013-01-01 10:43:00,
2013-01-01 05:53:00,40.0,-99.9,29.86,SW,233,5.0,10.0,-999,-99.99,,,-99.99,,2013-01-01 10:53:00,
2013-01-01 06:02:00,39.0,-99.9,29.86,WSW,242,4.0,8.0,-999,-99.99,,,-99.99,,2013-01-01 11:02:00,
2013-01-01 06:12:00,39.0,-99.9,29.86,West,260,7.0,12.0,-999,-99.99,,,-99.99,,2013-01-01 11:12:00,
2013-01-01 06:23:00,39.0,-99.9,29.86,West,259,6.0,10.0,-999,-99.99,,,-99.99,,2013-01-01 11:23:00,
2013-01-01 06:33:00,39.0,-99.9,29.86,West,266,9.0,15.0,-999,-99.99,,,-99.99,,2013-01-01 11:33:00,
2013-01-01 06:43:00,39.0,-99.9,29.87,WSW,258,7.0,11.0,-999,-99.99,,,-99.99,,2013-01-01 11:43:00,
2013-01-01 06:53:00,39.0,-99.9,29.88,WSW,253,7.0,11.0,-999,-99.99,,,-99.99,,2013-01-01 11:53:00,
2013-01-01 07:03:00,39.0,-99.9,29.88,WSW,248,8.0,15.0,-999,-99.99,,,-99.99,,2013-01-01 12:03:00,
2013-01-01 07:12:00,39.0,-99.9,29.88,WSW,245,7.0,11.0,-999,-99.99,,,-99.99,,2013-01-01 12:12:00,
2013-01-01 07:22:00,39.0,-99.9,29.89,WSW,249,5.0,11.0,-999,-99.99,,,-99.99,,2013-01-01 12:22:00,
2013-01-01 07:33:00,39.0,-99.9,29.89,WSW,255,7.0,12.0,-999,-99.99,,,-99.99,,2013-01-01 12:33:00,
2013-01-01 07:43:00,39.0,-99.9,29.88,WSW,248,8.0,13.0,-999,-99.99,,,-99.99,,2013-01-01 12:43:00,
2013-01-01 07:53:00,39.0,-99.9,29.88,WSW,251,11.0,16.0,-999,-99.99,,,-99.99,,2013-01-01 12:53:00,
2013-01-01 08:03:00,39.0,-99.9,29.89,WSW,241,7.0,13.0,-999,-99.99,,,-99.99,,2013-01-01 13:03:00,
2013-01-01 08:12:00,39.0,-99.9,29.88,WSW,250,10.0,15.0,-999,-99.99,,,-99.99,,2013-01-01 13:12:00,
2013-01-01 08:22:00,39.0,-99.9,29.88,West,262,9.0,15.0,-999,-99.99,,,-99.99,,2013-01-01 13:22:00,
2013-01-01 08:33:00,39.0,-99.9,29.88,WSW,254,10.0,19.0,-999,-99.99,,,-99.99,,2013-01-01 13:33:00,
2013-01-01 08:43:00,39.0,-99.9,29.88,WSW,257,7.0,13.0,-999,-99.99,,,-99.99,,2013-01-01 13:43:00,
2013-01-01 08:53:00,39.0,-99.9,29.88,West,271,8.0,14.0,-999,-99.99,,,-99.99,,2013-01-01 13:53:00,
2013-01-01 09:03:00,39.0,-99.9,29.88,WSW,252,8.0,17.0,-999,-99.99,,,-99.99,,2013-01-01 14:03:00,
2013-01-01 09:12:00,39.0,-99.9,29.88,West,264,10.0,14.0,-999,-99.99,,,-99.99,,2013-01-01 14:12:00,
2013-01-01 09:22:00,39.0,-99.9,29.88,WSW,246,9.0,14.0,-999,-99.99,,,-99.99,,2013-01-01 14:22:00,
2013-01-01 09:33:00,39.0,-99.9,29.88,WSW,250,10.0,16.0,-999,-99.99,,,-99.99,,2013-01-01 14:33:00,
2013-01-01 09:43:00,40.0,-99.9,29.89,WSW,254,8.0,13.0,-999,-99.99,,,-99.99,,2013-01-01 14:43:00,
2013-01-01 09:53:00,40.0,-99.9,29.89,West,260,8.0,14.0,-999,-99.99,,,-99.99,,2013-01-01 14:53:00,
2013-01-01 10:03:00,40.0,-99.9,29.89,WSW,254,8.0,14.0,-999,-99.99,,,-99.99,,2013-01-01 15:03:00,
2013-01-01 10:13:00,40.0,-99.9,29.89,WSW,254,10.0,15.0,-999,-99.99,,,-99.99,,2013-01-01 15:13:00,
2013-01-01 10:22:00,40.0,-99.9,29.89,WSW,255,8.0,13.0,-999,-99.99,,,-99.99,,2013-01-01 15:22:00,
2013-01-01 10:33:00,40.0,-99.9,29.89,West,268,9.0,15.0,-999,-99.99,,,-99.99,,2013-01-01 15:33:00,
2013-01-01 10:43:00,40.0,-99.9,29.89,West,262,9.0,13.0,-999,-99.99,,,-99.99,,2013-01-01 15:43:00,
2013-01-01 10:53:00,40.0,-99.9,29.89,West,261,8.0,14.0,-999,-99.99,,,-99.99,,2013-01-01 15:53:00,
2013-01-01 11:02:00,40.0,-99.9,29.89,West,268,8.0,14.0,-999,-99.99,,,-99.99,,2013-01-01 16:02:00,
2013-01-01 11:12:00,40.0,-99.9,29.88,West,272,7.0,11.0,-999,-99.99,,,-99.99,,2013-01-01 16:12:00,
2013-01-01 11:23:00,40.0,-99.9,29.88,West,264,9.0,17.0,-999,-99.99,,,-99.99,,2013-01-01 16:23:00,
2013-01-01 11:33:00,40.0,-99.9,29.88,WNW,289,13.0,18.0,-999,-99.99,,,-99.99,,2013-01-01 16:33:00,
2013-01-01 11:43:00,40.0,-99.9,29.88,WNW,284,8.0,12.0,-999,-99.99,,,-99.99,,2013-01-01 16:43:00,
2013-01-01 11:53:00,40.0,-99.9,29.88,West,279,11.0,16.0,-999,-99.99,,,-99.99,,2013-01-01 16:53:00,
2013-01-01 12:03:00,40.0,-99.9,29.87,West,279,16.0,23.0,-999,-99.99,,,-99.99,,2013-01-01 17:03:00,
2013-01-01 12:12:00,40.0,-99.9,29.86,WNW,295,12.0,19.0,-999,-99.99,,,-99.99,,2013-01-01 17:12:00,
2013-01-01 12:23:00,40.0,-99.9,29.85,WNW,286,12.0,16.0,-999,-99.99,,,-99.99,,2013-01-01 17:23:00,
2013-01-01 12:33:00,40.0,-99.9,29.86,West,269,11.0,15.0,-999,-99.99,,,-99.99,,2013-01-01 17:33:00,
2013-01-01 12:43:00,40.0,-99.9,29.85,WNW,284,11.0,19.0,-999,-99.99,,,-99.99,,2013-01-01 17:43:00,
2013-01-01 12:53:00,40.0,-99.9,29.84,West,277,14.0,22.0,-999,-99.99,,,-99.99,,2013-01-01 17:53:00,
2013-01-01 13:03:00,40.0,-99.9,29.85,West,280,10.0,15.0,-999,-99.99,,,-99.99,,2013-01-01 18:03:00,
2013-01-01 13:13:00,40.0,-99.9,29.85,West,278,10.0,14.0,-999,-99.99,,,-99.99,,2013-01-01 18:13:00,
2013-01-01 13:23:00,40.0,-99.9,29.84,WNW,289,12.0,17.0,-999,-99.99,,,-99.99,,2013-01-01 18:23:00,
2013-01-01 13:33:00,40.0,-99.9,29.85,West,275,12.0,19.0,-999,-99.99,,,-99.99,,2013-01-01 18:33:00,
2013-01-01 13:43:00,38.0,-99.9,29.84,NNW,333,18.0,22.0,-999,-99.99,,,-99.99,,2013-01-01 18:43:00,
2013-01-01 13:53:00,38.0,-99.9,29.85,NW,319,13.0,19.0,-999,-99.99,,,-99.99,,2013-01-01 18:53:00,
2013-01-01 14:02:00,38.0,-99.9,29.84,NW,313,11.0,16.0,-999,-99.99,,,-99.99,,2013-01-01 19:02:00,
2013-01-01 14:12:00,38.0,-99.9,29.84,NW,311,12.0,15.0,-999,-99.99,,,-99.99,,2013-01-01 19:12:00,
2013-01-01 14:22:00,38.0,-99.9,29.83,NW,312,11.0,16.0,-999,-99.99,,,-99.99,,2013-01-01 19:22:00,
2013-01-01 14:33:00,38.0,-99.9,29.83,NW,304,10.0,13.0,-999,-99.99,,,-99.99,,2013-01-01 19:33:00,
2013-01-01 14:43:00,38.0,-99.9,29.83,WNW,297,9.0,13.0,-999,-99.99,,,-99.99,,2013-01-01 19:43:00,
2013-01-01 14:53:00,38.0,-99.9,29.83,WNW,302,8.0,12.0,-999,-99.99,,,-99.99,,2013-01-01 19:53:00,
2013-01-01 15:02:00,38.0,-99.9,29.83,WNW,302,10.0,17.0,-999,-99.99,,,-99.99,,2013-01-01 20:02:00,
2013-01-01 15:13:00,38.0,-99.9,29.84,NW,312,10.0,15.0,-999,-99.99,,,-99.99,,2013-01-01 20:13:00,
2013-01-01 15:23:00,38.0,-99.9,29.83,NW,307,7.0,10.0,-999,-99.99,,,-99.99,,2013-01-01 20:23:00,
2013-01-01 15:32:00,38.0,-99.9,29.83,NW,304,10.0,13.0,-999,-99.99,,,-99.99,,2013-01-01 20:32:00,
2013-01-01 15:43:00,38.0,-99.9,29.84,NW,311,8.0,12.0,-999,-99.99,,,-99.99,,2013-01-01 20:43:00,
2013-01-01 15:53:00,38.0,-99.9,29.84,NW,314,11.0,15.0,-999,-99.99,,,-99.99,,2013-01-01 20:53:00,
2013-01-01 16:03:00,38.0,-99.9,29.84,NW,313,9.0,13.0,-999,-99.99,,,-99.99,,2013-01-01 21:03:00,
2013-01-01 16:13:00,38.0,-99.9,29.86,WNW,297,8.0,11.0,-999,-99.99,,,-99.99,,2013-01-01 21:13:00,
2013-01-01 16:22:00,38.0,-99.9,29.87,WNW,299,9.0,12.0,-999,-99.99,,,-99.99,,2013-01-01 21:22:00,
2013-01-01 16:33:00,38.0,-99.9,29.88,WNW,297,10.0,13.0,-999,-99.99,,,-99.99,,2013-01-01 21:33:00,
2013-01-01 16:43:00,38.0,-99.9,29.87,NW,304,8.0,11.0,-999,-99.99,,,-99.99,,2013-01-01 21:43:00,
2013-01-01 16:53:00,38.0,-99.9,29.88,NW,308,6.0,9.0,-999,-99.99,,,-99.99,,2013-01-01 21:53:00,
2013-01-01 17:03:00,38.0,-99.9,29.88,NW,317,7.0,13.0,-999,-99.99,,,-99.99,,2013-01-01 22:03:00,
2013-01-01 17:13:00,38.0,-99.9,29.87,NW,325,16.0,20.0,-999,-99.99,,,-99.99,,2013-01-01 22:13:00,
2013-01-01 17:23:00,38.0,-99.9,29.88,NW,318,13.0,20.0,-999,-99.99,,,-99.99,,2013-01-01 22:23:00,
2013-01-01 17:33:00,38.0,-99.9,29.88,NNW,335,18.0,23.0,-999,-99.99,,,-99.99,,2013-01-01 22:33:00,
2013-01-01 17:43:00,37.0,-99.9,29.89,NNW,333,19.0,22.0,-999,-99.99,,,-99.99,,2013-01-01 22:43:00,
2013-01-01 17:53:00,37.0,-99.9,29.89,NW,326,17.0,20.0,-999,-99.99,,,-99.99,,2013-01-01 22:53:00,
2013-01-01 18:03:00,37.0,-99.9,29.89,NW,323,17.0,21.0,-999,-99.99,,,-99.99,,2013-01-01 23:03:00,
2013-01-01 18:13:00,37.0,-99.9,29.90,NNW,327,17.0,21.0,-999,-99.99,,,-99.99,,2013-01-01 23:13:00,
2013-01-01 18:22:00,36.0,-99.9,29.90,NNW,328,17.0,22.0,-999,-99.99,,,-99.99,,2013-01-01 23:22:00,
2013-01-01 18:33:00,36.0,-99.9,29.90,NW,314,15.0,22.0,-999,-99.99,,,-99.99,,2013-01-01 23:33:00,
2013-01-01 18:42:00,36.0,-99.9,29.91,NW,317,11.0,16.0,-999,-99.99,,,-99.99,,2013-01-01 23:42:00,
2013-01-01 18:53:00,36.0,-99.9,29.91,NW,326,15.0,19.0,-999,-99.99,,,-99.99,,2013-01-01 23:53:00,
2013-01-01 19:03:00,36.0,-99.9,29.92,NNW,328,12.0,15.0,-999,-99.99,,,-99.99,,2013-01-02 00:03:00,
2013-01-01 19:12:00,35.0,-99.9,29.93,NW,320,13.0,17.0,-999,-99.99,,,-99.99,,2013-01-02 00:12:00,
2013-01-01 19:22:00,35.0,-99.9,29.93,NW,324,13.0,17.0,-999,-99.99,,,-99.99,,2013-01-02 00:22:00,
2013-01-01 19:33:00,35.0,-99.9,29.94,NW,318,13.0,18.0,-999,-99.99,,,-99.99,,2013-01-02 00:33:00,
2013-01-01 19:43:00,35.0,-99.9,29.94,NW,318,15.0,20.0,-999,-99.99,,,-99.99,,2013-01-02 00:43:00,
2013-01-01 19:53:00,34.0,-99.9,29.94,NW,322,12.0,16.0,-999,-99.99,,,-99.99,,2013-01-02 00:53:00,
2013-01-01 20:02:00,34.0,-99.9,29.94,NW,321,11.0,15.0,-999,-99.99,,,-99.99,,2013-01-02 01:02:00,
2013-01-01 20:12:00,34.0,-99.9,29.94,NW,324,10.0,13.0,-999,-99.99,,,-99.99,,2013-01-02 01:12:00,
2013-01-01 20:22:00,34.0,-99.9,29.94,NW,323,11.0,16.0,-999,-99.99,,,-99.99,,2013-01-02 01:22:00,
2013-01-01 20:33:00,34.0,-99.9,29.94,NW,317,11.0,18.0,-999,-99.99,,,-99.99,,2013-01-02 01:33:00,
2013-01-01 20:42:00,34.0,-99.9,29.95,NW,321,9.0,15.0,-999,-99.99,,,-99.99,,2013-01-02 01:42:00,
2013-01-01 20:53:00,34.0,-99.9,29.96,NW,319,11.0,16.0,-999,-99.99,,,-99.99,,2013-01-02 01:53:00,
2013-01-01 21:02:00,34.0,-99.9,29.95,NNW,327,13.0,17.0,-999,-99.99,,,-99.99,,2013-01-02 02:02:00,
2013-01-01 21:12:00,33.0,-99.9,29.96,NNW,335,17.0,22.0,-999,-99.99,,,-99.99,,2013-01-02 02:12:00,
2013-01-01 21:22:00,33.0,-99.9,29.95,NNW,342,16.0,18.0,-999,-99.99,,,-99.99,,2013-01-02 02:22:00,
2013-01-01 21:33:00,33.0,-99.9,29.95,NNW,335,17.0,22.0,-999,-99.99,,,-99.99,,2013-01-02 02:33:00,
2013-01-01 21:43:00,33.0,-99.9,29.96,NW,325,18.0,24.0,-999,-99.99,,,-99.99,,2013-01-02 02:43:00,
2013-01-01 21:53:00,32.0,-99.9,29.97,NNW,327,17.0,19.0,-999,-99.99,,,-99.99,,2013-01-02 02:53:00,
2013-01-01 22:02:00,-999.0,-99.9,29.97,NNW,342,20.0,23.0,-999,-99.99,,,-99.99,,2013-01-02 03:02:00,
2013-01-01 22:12:00,-999.0,-99.9,29.96,NNW,343,19.0,22.0,-999,-99.99,,,-99.99,,2013-01-02 03:12:00,
2013-01-01 22:22:00,-999.0,-99.9,29.98,NNW,342,17.0,21.0,-999,-99.99,,,-99.99,,2013-01-02 03:22:00,
2013-01-01 22:32:00,-999.0,-99.9,29.98,NNW,334,21.0,26.0,-999,-99.99,,,-99.99,,2013-01-02 03:32:00,
2013-01-01 22:42:00,-999.0,-99.9,29.99,NW,323,19.0,23.0,-999,-99.99,,,-99.99,,2013-01-02 03:42:00,
2013-01-01 22:53:00,-999.0,-99.9,29.99,NW,325,17.0,21.0,-999,-99.99,,,-99.99,,2013-01-02 03:53:00,
2013-01-01 23:03:00,30.0,-99.9,29.99,NW,325,18.0,22.0,-999,-99.99,,,-99.99,,2013-01-02 04:03:00,
2013-01-01 23:12:00,-999.0,-99.9,30.00,NW,322,14.0,20.0,-999,-99.99,,,-99.99,,2013-01-02 04:12:00,
2013-01-01 23:22:00,-999.0,-99.9,29.99,NNW,335,23.0,27.0,-999,-99.99,,,-99.99,,2013-01-02 04:22:00,
2013-01-01 23:33:00,-999.0,-99.9,29.99,NW,324,19.0,25.0,-999,-99.99,,,-99.99,,2013-01-02 04:33:00,
2013-01-01 23:42:00,29.0,-99.9,30.01,NW,321,18.0,27.0,-999,-99.99,,,-99.99,,2013-01-02 04:42:00,
2013-01-01 23:53:00,-999.0,-99.9,30.00,NW,321,16.0,23.0,-999,-99.99,,,-99.99,,2013-01-02 04:53:00,